Terminal Aerodrome Forecast
Issued by NWS

Current Version | Previous Version | Text Only | Print | Product List | Glossary On
Versions: 1 2 3 4 5 6 7 8 9 10 11 12
889
FTUS45 KREV 052320
TAFMMH
TAF
KMMH 052320Z 0600/0624 26010G18KT P6SM VCSH BKN080 BKN140
     FM060200 34006KT P6SM -SHRA BKN060 BKN140=

USA.gov is the U.S. government's official web portal to all federal, state and local government web resources and services.